Time;durP1;ratioP1;P1;durP2;ratioP2;P2;SDS_P1;SDS_P2;PMS_P1;PMS_P2;Temp;Humidity;BMP_temperature;BMP_pressure;BME280_temperature;BME280_humidity;BME280_pressure;Samples;Min_cycle;Max_cycle;Signal;HPM_P1;HPM_P2
2022/11/09 00:01:31;;;;;;;;;;;21.50;50.70;;;;;;5035061;28;19955;-71
2022/11/09 00:03:57;;;;;;;;;;;21.50;50.70;;;;;;5030902;28;19917;-73
2022/11/09 00:06:23;;;;;;;;;;;21.50;50.70;;;;;;5040962;28;19920;-72
2022/11/09 00:08:49;;;;;;;;;;;21.50;50.70;;;;;;5053537;28;19967;-73
2022/11/09 00:11:14;;;;;;;;;;;21.50;50.70;;;;;;5034262;28;19920;-72
2022/11/09 00:13:40;;;;;;;;;;;21.50;50.80;;;;;;5051650;28;19923;-72
2022/11/09 00:16:06;;;;;;;;;;;21.40;50.80;;;;;;5033982;28;20273;-73
2022/11/09 00:18:32;;;;;;;;;;;21.40;50.80;;;;;;5034261;28;19913;-73
2022/11/09 00:20:58;;;;;;;;;;;21.40;51.60;;;;;;5034584;28;20361;-71
2022/11/09 00:23:23;;;;;;;;;;;21.40;50.90;;;;;;5033962;28;19921;-72
2022/11/09 00:25:49;;;;;;;;;;;21.40;50.90;;;;;;5026873;28;19920;-72
2022/11/09 00:28:14;;;;;;;;;;;21.30;50.90;;;;;;5051817;28;19956;-73
2022/11/09 00:30:40;;;;;;;;;;;21.30;51.00;;;;;;5052089;28;20289;-73
2022/11/09 00:33:05;;;;;;;;;;;21.30;51.00;;;;;;5034210;28;19913;-73
2022/11/09 00:35:31;;;;;;;;;;;21.30;51.00;;;;;;5033366;28;20379;-72
2022/11/09 00:37:56;;;;;;;;;;;21.30;51.00;;;;;;5051967;28;19975;-72
2022/11/09 00:40:22;;;;;;;;;;;21.30;50.90;;;;;;5051531;28;19920;-72
2022/11/09 00:42:47;;;;;;;;;;;21.30;51.00;;;;;;5034569;28;19909;-72
2022/11/09 00:45:12;;;;;;;;;;;21.30;51.00;;;;;;5034056;28;19951;-72
2022/11/09 00:47:38;;;;;;;;;;;21.20;51.00;;;;;;5031292;28;19925;-71
2022/11/09 00:50:04;;;;;;;;;;;21.20;51.10;;;;;;5034973;28;20277;-72
2022/11/09 00:52:29;;;;;;;;;;;21.20;51.10;;;;;;5034118;28;19952;-72
2022/11/09 00:54:54;;;;;;;;;;;21.20;51.10;;;;;;5051111;28;19919;-71
2022/11/09 00:57:20;;;;;;;;;;;21.20;51.10;;;;;;5051383;28;19944;-72
2022/11/09 00:59:45;;;;;;;;;;;21.20;51.10;;;;;;5033288;28;19913;-72
2022/11/09 01:02:11;;;;;;;;;;;21.20;51.20;;;;;;5051131;28;20434;-72
2022/11/09 01:04:36;;;;;;;;;;;21.20;51.10;;;;;;5051576;28;19961;-72
2022/11/09 01:07:02;;;;;;;;;;;21.20;51.10;;;;;;5050852;28;19924;-73
2022/11/09 01:09:28;;;;;;;;;;;21.20;51.10;;;;;;5047924;28;20296;-72
2022/11/09 01:11:53;;;;;;;;;;;21.10;51.10;;;;;;5049906;28;20429;-72
2022/11/09 01:14:19;;;;;;;;;;;21.10;51.10;;;;;;5033820;28;19919;-71
2022/11/09 01:16:44;;;;;;;;;;;21.20;51.80;;;;;;5033879;28;19912;-72
2022/11/09 01:19:10;;;;;;;;;;;21.10;51.00;;;;;;5031806;28;20384;-72
2022/11/09 01:21:35;;;;;;;;;;;21.10;51.10;;;;;;5034323;28;20296;-71
2022/11/09 01:24:01;;;;;;;;;;;21.10;51.10;;;;;;5050492;28;19967;-72
2022/11/09 01:26:26;;;;;;;;;;;21.10;51.10;;;;;;5050968;28;19921;-72
2022/11/09 01:28:52;;;;;;;;;;;21.10;51.00;;;;;;5050197;28;19909;-71
2022/11/09 01:31:18;;;;;;;;;;;21.10;51.00;;;;;;5051856;28;19913;-72
2022/11/09 01:33:43;;;;;;;;;;;21.10;51.00;;;;;;5033145;28;19956;-71
2022/11/09 01:36:09;;;;;;;;;;;21.10;51.00;;;;;;5015946;28;19959;-71
2022/11/09 01:38:36;;;;;;;;;;;21.10;51.10;;;;;;5050197;28;19912;-72
2022/11/09 01:41:02;;;;;;;;;;;21.10;51.20;;;;;;5028285;28;20004;-73
2022/11/09 01:43:27;;;;;;;;;;;21.10;51.10;;;;;;5051142;28;19991;-72
2022/11/09 01:46:31;;;;;;;;;;;21.00;51.20;;;;;;5047050;28;19908;-72
2022/11/09 01:49:01;;;;;;;;;;;21.00;51.20;;;;;;4927769;29;19970;-72
2022/11/09 01:51:28;;;;;;;;;;;21.00;51.30;;;;;;4911680;29;19919;-72
2022/11/09 01:54:00;;;;;;;;;;;21.00;51.30;;;;;;4990868;28;19913;-72
2022/11/09 01:56:25;;;;;;;;;;;21.00;51.30;;;;;;5051563;28;19909;-72
2022/11/09 01:58:55;;;;;;;;;;;21.00;51.30;;;;;;5034253;28;19963;-72
2022/11/09 02:01:20;;;;;;;;;;;20.90;51.30;;;;;;5035967;28;20244;-73
2022/11/09 02:03:47;;;;;;;;;;;21.00;51.30;;;;;;5026659;28;19917;-72
2022/11/09 02:06:13;;;;;;;;;;;21.00;51.30;;;;;;5028212;28;20019;-72
2022/11/09 02:08:38;;;;;;;;;;;20.90;51.30;;;;;;5037351;28;19995;-72
2022/11/09 02:11:04;;;;;;;;;;;20.90;51.40;;;;;;5042185;28;19913;-72
2022/11/09 02:13:29;;;;;;;;;;;20.90;51.30;;;;;;5054120;28;19913;-72
2022/11/09 02:15:55;;;;;;;;;;;21.00;51.30;;;;;;5036711;28;19920;-72
2022/11/09 02:18:20;;;;;;;;;;;20.90;51.20;;;;;;5035175;28;19909;-72
2022/11/09 02:20:47;;;;;;;;;;;21.00;51.30;;;;;;5037386;28;19935;-72
2022/11/09 02:23:13;;;;;;;;;;;20.90;51.40;;;;;;5053416;28;19916;-72
2022/11/09 02:25:38;;;;;;;;;;;20.90;51.40;;;;;;5035351;28;19916;-72
2022/11/09 02:28:04;;;;;;;;;;;20.90;51.50;;;;;;5036252;28;19916;-72
2022/11/09 02:30:29;;;;;;;;;;;20.90;51.40;;;;;;5053870;28;19935;-72
2022/11/09 02:32:55;;;;;;;;;;;20.90;51.40;;;;;;5038651;28;20299;-72
2022/11/09 02:35:20;;;;;;;;;;;20.90;51.40;;;;;;5053173;28;19917;-71
2022/11/09 02:37:46;;;;;;;;;;;20.90;51.40;;;;;;5054706;28;20011;-72
2022/11/09 02:40:19;;;;;;;;;;;20.90;51.30;;;;;;5036709;28;19920;-72
2022/11/09 02:42:45;;;;;;;;;;;20.90;51.30;;;;;;5035726;28;20016;-72
2022/11/09 02:45:10;;;;;;;;;;;21.00;51.40;;;;;;5037217;28;20316;-72
2022/11/09 02:47:36;;;;;;;;;;;20.90;51.40;;;;;;5053162;28;20158;-72
2022/11/09 02:50:01;;;;;;;;;;;20.90;51.40;;;;;;5037040;28;20047;-71
2022/11/09 02:52:26;;;;;;;;;;;20.90;51.40;;;;;;5052981;28;19924;-72
2022/11/09 02:54:52;;;;;;;;;;;20.90;51.40;;;;;;5050874;28;20003;-72
2022/11/09 02:57:17;;;;;;;;;;;20.90;51.30;;;;;;5054050;28;19928;-71
2022/11/09 02:59:43;;;;;;;;;;;20.90;51.30;;;;;;5052672;28;19916;-71
2022/11/09 03:02:08;;;;;;;;;;;21.00;51.40;;;;;;5036357;28;19916;-71
2022/11/09 03:04:34;;;;;;;;;;;20.90;51.40;;;;;;5036290;28;19967;-72
2022/11/09 03:06:59;;;;;;;;;;;20.90;51.30;;;;;;5020829;28;19917;-72
2022/11/09 03:09:25;;;;;;;;;;;20.90;52.00;;;;;;5048380;28;19913;-73
2022/11/09 03:11:50;;;;;;;;;;;20.90;51.30;;;;;;5050072;28;19912;-71
2022/11/09 03:14:16;;;;;;;;;;;20.90;51.40;;;;;;5051951;28;19912;-72
2022/11/09 03:16:41;;;;;;;;;;;20.90;51.40;;;;;;5035195;28;19963;-72
2022/11/09 03:19:07;;;;;;;;;;;20.90;51.40;;;;;;5034669;28;19939;-72
2022/11/09 03:21:32;;;;;;;;;;;20.90;51.60;;;;;;5053143;28;19912;-72
2022/11/09 03:23:57;;;;;;;;;;;20.80;52.20;;;;;;5050988;28;19913;-72
2022/11/09 03:26:23;;;;;;;;;;;20.90;51.50;;;;;;5054258;28;19916;-72
2022/11/09 03:28:48;;;;;;;;;;;20.90;51.40;;;;;;5052683;28;19921;-72
2022/11/09 03:31:14;;;;;;;;;;;20.90;51.40;;;;;;5052126;28;19982;-72
2022/11/09 03:33:39;;;;;;;;;;;20.90;51.40;;;;;;5043363;28;20053;-72
2022/11/09 03:36:05;;;;;;;;;;;20.90;51.40;;;;;;5035246;28;19916;-72
2022/11/09 03:38:31;;;;;;;;;;;20.90;51.40;;;;;;5034084;28;19919;-72
2022/11/09 03:40:58;;;;;;;;;;;20.90;51.40;;;;;;5035221;28;19932;-72
2022/11/09 03:43:23;;;;;;;;;;;20.90;51.40;;;;;;5034433;28;19917;-72
2022/11/09 03:45:48;;;;;;;;;;;20.90;51.40;;;;;;5052359;28;20162;-72
2022/11/09 03:48:14;;;;;;;;;;;20.90;51.50;;;;;;5053588;28;20391;-72
2022/11/09 03:50:39;;;;;;;;;;;20.80;51.40;;;;;;5053269;28;19924;-72
2022/11/09 03:53:08;;;;;;;;;;;20.80;51.40;;;;;;5052040;28;20043;-72
2022/11/09 03:55:34;;;;;;;;;;;20.80;51.50;;;;;;5035971;28;20372;-70
2022/11/09 03:58:00;;;;;;;;;;;20.80;51.50;;;;;;5034202;28;19939;-72
2022/11/09 04:00:25;;;;;;;;;;;20.80;51.50;;;;;;5034950;28;19974;-71
2022/11/09 04:02:50;;;;;;;;;;;20.80;51.50;;;;;;5034893;28;19913;-71
2022/11/09 04:05:16;;;;;;;;;;;20.80;51.60;;;;;;5034528;28;19967;-72
2022/11/09 04:07:48;;;;;;;;;;;20.80;51.70;;;;;;5053349;28;19919;-72
2022/11/09 04:10:13;;;;;;;;;;;20.80;51.70;;;;;;5033645;28;20471;-71
2022/11/09 04:12:39;;;;;;;;;;;20.70;51.70;;;;;;5052036;28;19917;-71
2022/11/09 04:15:04;;;;;;;;;;;20.70;51.70;;;;;;5051905;28;19952;-72
2022/11/09 04:17:30;;;;;;;;;;;20.70;51.70;;;;;;5053684;28;19913;-71
2022/11/09 04:19:56;;;;;;;;;;;20.70;51.70;;;;;;5052391;28;19956;-71
2022/11/09 04:22:21;;;;;;;;;;;20.70;51.70;;;;;;5049914;28;19921;-72
2022/11/09 04:24:46;;;;;;;;;;;20.70;51.80;;;;;;5050594;28;19923;-71
2022/11/09 04:27:12;;;;;;;;;;;20.70;51.80;;;;;;5052328;28;20486;-71
2022/11/09 04:29:37;;;;;;;;;;;20.70;51.80;;;;;;5034888;28;19909;-71
2022/11/09 04:32:03;;;;;;;;;;;20.70;51.80;;;;;;5052575;28;20011;-71
2022/11/09 04:34:28;;;;;;;;;;;20.70;51.90;;;;;;5033157;28;20009;-71
2022/11/09 04:36:54;;;;;;;;;;;20.70;51.90;;;;;;5037122;28;20304;-71
2022/11/09 04:39:19;;;;;;;;;;;20.70;51.90;;;;;;5051386;28;19995;-69
2022/11/09 04:41:45;;;;;;;;;;;20.70;52.00;;;;;;5052242;28;19920;-72
2022/11/09 04:44:10;;;;;;;;;;;20.70;52.00;;;;;;5031629;28;19995;-72
2022/11/09 04:46:35;;;;;;;;;;;20.70;52.00;;;;;;5050651;28;19932;-70
2022/11/09 04:49:01;;;;;;;;;;;20.70;52.00;;;;;;5051782;28;19939;-71
2022/11/09 04:51:26;;;;;;;;;;;20.70;52.00;;;;;;5052524;28;20378;-72
2022/11/09 04:53:52;;;;;;;;;;;20.70;52.00;;;;;;5032275;28;20390;-71
2022/11/09 04:56:17;;;;;;;;;;;20.70;52.00;;;;;;5052805;28;19931;-71
2022/11/09 04:58:43;;;;;;;;;;;20.70;51.90;;;;;;5043735;28;19923;-72
2022/11/09 05:01:11;;;;;;;;;;;20.70;52.00;;;;;;5034004;28;20023;-71
2022/11/09 05:03:37;;;;;;;;;;;20.70;52.00;;;;;;5049351;28;20304;-71
2022/11/09 05:06:36;;;;;;;;;;;20.70;52.00;;;;;;5034762;28;19913;-70
2022/11/09 05:08:54;;;;;;;;;;;20.70;51.90;;;;;;5033972;28;19920;-70
2022/11/09 05:11:20;;;;;;;;;;;20.70;51.90;;;;;;5052282;28;20188;-71
2022/11/09 05:13:45;;;;;;;;;;;20.70;51.80;;;;;;5043766;28;19978;-71
2022/11/09 05:16:11;;;;;;;;;;;20.70;51.80;;;;;;5052576;28;19908;-71
2022/11/09 05:18:36;;;;;;;;;;;20.70;51.90;;;;;;5050852;28;19917;-70
2022/11/09 05:21:02;;;;;;;;;;;20.70;51.90;;;;;;5050091;28;20059;-71
2022/11/09 05:26:12;;;;;;;;;;;20.70;51.80;;;;;;5052154;28;19920;-70
2022/11/09 05:28:37;;;;;;;;;;;20.70;51.80;;;;;;5050243;28;20364;-71
2022/11/09 05:31:03;;;;;;;;;;;20.70;51.90;;;;;;5029959;28;20270;-71
2022/11/09 05:33:29;;;;;;;;;;;20.70;52.00;;;;;;5031007;28;19917;-71
2022/11/09 05:35:54;;;;;;;;;;;20.70;52.00;;;;;;5033999;28;19927;-71
2022/11/09 05:38:20;;;;;;;;;;;20.70;52.00;;;;;;5016160;28;20000;-72
2022/11/09 05:40:49;;;;;;;;;;;20.70;52.00;;;;;;5037234;28;19924;-71
2022/11/09 05:43:14;;;;;;;;;;;20.70;52.00;;;;;;5033114;28;20003;-71
2022/11/09 05:45:40;;;;;;;;;;;20.70;52.10;;;;;;5050249;28;20007;-71
2022/11/09 05:48:06;;;;;;;;;;;20.70;52.10;;;;;;5033817;28;19921;-71
2022/11/09 05:50:31;;;;;;;;;;;20.70;52.10;;;;;;5033073;28;19913;-72
2022/11/09 05:53:00;;;;;;;;;;;20.70;52.10;;;;;;5032247;28;19916;-71
2022/11/09 05:55:25;;;;;;;;;;;20.70;52.10;;;;;;5033184;28;20372;-72
2022/11/09 05:57:51;;;;;;;;;;;20.70;52.20;;;;;;5033586;28;19955;-71
2022/11/09 06:00:16;;;;;;;;;;;20.70;52.20;;;;;;5031062;28;19923;-72
2022/11/09 06:02:42;;;;;;;;;;;20.70;52.20;;;;;;5051501;28;19952;-71
2022/11/09 06:05:07;;;;;;;;;;;20.70;52.30;;;;;;5047427;28;19921;-71
2022/11/09 06:07:33;;;;;;;;;;;20.70;52.30;;;;;;5051139;28;19924;-71
2022/11/09 06:09:58;;;;;;;;;;;20.60;52.20;;;;;;5051957;28;20003;-71
2022/11/09 06:12:24;;;;;;;;;;;20.60;52.30;;;;;;5048116;28;19923;-71
2022/11/09 06:14:49;;;;;;;;;;;20.60;52.30;;;;;;5048630;28;20015;-71
2022/11/09 06:17:15;;;;;;;;;;;20.60;52.30;;;;;;5051327;28;19909;-71
2022/11/09 06:19:40;;;;;;;;;;;20.60;52.40;;;;;;5050728;28;19917;-71
2022/11/09 06:22:06;;;;;;;;;;;20.60;52.30;;;;;;5051663;28;20383;-71
2022/11/09 06:24:31;;;;;;;;;;;20.60;52.30;;;;;;5032421;28;19913;-71
2022/11/09 06:26:56;;;;;;;;;;;20.60;52.40;;;;;;5049360;28;20368;-71
2022/11/09 06:29:22;;;;;;;;;;;20.60;52.50;;;;;;5029515;28;20426;-71
2022/11/09 06:31:47;;;;;;;;;;;20.60;52.50;;;;;;5048449;28;19980;-70
2022/11/09 06:34:14;;;;;;;;;;;20.60;52.40;;;;;;5043705;28;19917;-72
2022/11/09 06:36:39;;;;;;;;;;;20.60;52.70;;;;;;5028773;28;19921;-71
2022/11/09 06:39:07;;;;;;;;;;;20.60;52.60;;;;;;5014633;28;19967;-71
2022/11/09 06:41:32;;;;;;;;;;;20.50;52.50;;;;;;5049770;28;19955;-72
2022/11/09 06:43:57;;;;;;;;;;;20.60;52.50;;;;;;5033492;28;19956;-71
2022/11/09 06:46:23;;;;;;;;;;;20.60;52.50;;;;;;5049282;28;19916;-71
2022/11/09 06:48:48;;;;;;;;;;;20.50;52.50;;;;;;5052543;28;19917;-73
2022/11/09 06:51:14;;;;;;;;;;;20.50;52.50;;;;;;5053905;28;20399;-73
2022/11/09 06:53:40;;;;;;;;;;;20.60;52.50;;;;;;5053586;28;20323;-72
2022/11/09 06:56:05;;;;;;;;;;;20.60;52.40;;;;;;5035374;28;19916;-72
2022/11/09 06:58:31;;;;;;;;;;;20.60;52.50;;;;;;5051852;28;19913;-73
2022/11/09 07:00:56;;;;;;;;;;;20.60;52.50;;;;;;5050665;28;20008;-71
2022/11/09 07:03:22;;;;;;;;;;;20.50;52.40;;;;;;5052773;28;19917;-73
2022/11/09 07:05:48;;;;;;;;;;;20.50;52.50;;;;;;5035500;28;19919;-73
2022/11/09 07:08:13;;;;;;;;;;;20.50;52.50;;;;;;5035798;28;20758;-72
2022/11/09 07:10:40;;;;;;;;;;;20.40;52.50;;;;;;5053384;28;19917;-73
2022/11/09 07:13:05;;;;;;;;;;;20.40;52.60;;;;;;5033900;28;19999;-73
2022/11/09 07:15:31;;;;;;;;;;;20.40;52.60;;;;;;5028796;28;20011;-71
2022/11/09 07:17:57;;;;;;;;;;;20.50;52.70;;;;;;5052831;28;19920;-71
2022/11/09 07:20:22;;;;;;;;;;;20.50;52.70;;;;;;5028951;28;20514;-72
2022/11/09 07:22:48;;;;;;;;;;;20.50;52.60;;;;;;5052550;28;19917;-72
2022/11/09 07:25:14;;;;;;;;;;;20.50;52.90;;;;;;5034664;28;19967;-71
2022/11/09 07:27:39;;;;;;;;;;;20.50;52.70;;;;;;5035119;28;19920;-72
2022/11/09 07:30:06;;;;;;;;;;;20.50;52.60;;;;;;5034125;28;19916;-71
2022/11/09 07:32:34;;;;;;;;;;;20.50;52.60;;;;;;5036483;28;19913;-72
2022/11/09 07:35:00;;;;;;;;;;;20.40;52.60;;;;;;5051101;28;19935;-71
2022/11/09 07:37:25;;;;;;;;;;;20.40;52.70;;;;;;5026221;28;19928;-71
2022/11/09 07:39:51;;;;;;;;;;;20.40;52.70;;;;;;5054013;28;19908;-72
2022/11/09 07:42:16;;;;;;;;;;;20.50;52.80;;;;;;5052376;28;19916;-72
2022/11/09 07:44:42;;;;;;;;;;;20.40;52.70;;;;;;5034848;28;19912;-72
2022/11/09 07:47:08;;;;;;;;;;;20.40;52.70;;;;;;5033843;28;19955;-71
2022/11/09 07:49:34;;;;;;;;;;;20.40;52.60;;;;;;5040632;28;19920;-72
2022/11/09 07:51:59;;;;;;;;;;;20.50;52.70;;;;;;5053904;28;19932;-72
2022/11/09 07:54:25;;;;;;;;;;;20.50;52.70;;;;;;5051451;28;20557;-72
2022/11/09 07:56:51;;;;;;;;;;;20.50;52.70;;;;;;5051816;28;19912;-73
2022/11/09 07:59:16;;;;;;;;;;;20.50;52.90;;;;;;5049645;28;19939;-73
2022/11/09 08:01:41;;;;;;;;;;;20.50;53.10;;;;;;5052572;28;20008;-72
2022/11/09 08:04:07;;;;;;;;;;;20.40;53.20;;;;;;5048249;28;19917;-72
2022/11/09 08:06:33;;;;;;;;;;;20.40;53.50;;;;;;5052217;28;19966;-72
2022/11/09 08:08:58;;;;;;;;;;;20.30;53.50;;;;;;5035370;28;19963;-71
2022/11/09 08:11:24;;;;;;;;;;;20.40;53.60;;;;;;5053571;28;19957;-73
2022/11/09 08:13:49;;;;;;;;;;;20.40;53.70;;;;;;5052054;28;19913;-73
2022/11/09 08:16:15;;;;;;;;;;;20.40;53.70;;;;;;5053335;28;19909;-72
2022/11/09 08:18:40;;;;;;;;;;;20.40;53.60;;;;;;5033756;28;19932;-72
2022/11/09 08:21:06;;;;;;;;;;;20.40;53.50;;;;;;5049099;28;20003;-73
2022/11/09 08:23:31;;;;;;;;;;;20.40;53.50;;;;;;5035318;28;19963;-72
2022/11/09 08:25:58;;;;;;;;;;;20.40;53.50;;;;;;5035473;28;19960;-72
2022/11/09 08:28:23;;;;;;;;;;;20.40;53.60;;;;;;5034637;28;19917;-72
2022/11/09 08:30:59;;;;;;;;;;;20.40;53.50;;;;;;5051086;28;19917;-72
2022/11/09 08:33:25;;;;;;;;;;;20.40;53.50;;;;;;5032160;28;20304;-72
2022/11/09 08:35:51;;;;;;;;;;;20.40;53.60;;;;;;5033765;28;19917;-72
2022/11/09 08:38:16;;;;;;;;;;;20.40;53.50;;;;;;5035111;28;20634;-72
2022/11/09 08:40:42;;;;;;;;;;;20.40;53.60;;;;;;5020922;28;19921;-71
2022/11/09 08:43:08;;;;;;;;;;;20.30;53.50;;;;;;5049864;28;19916;-72
2022/11/09 08:45:35;;;;;;;;;;;20.40;53.70;;;;;;5030184;28;19974;-73
2022/11/09 08:48:00;;;;;;;;;;;20.40;53.60;;;;;;5050362;28;19932;-72
2022/11/09 08:50:26;;;;;;;;;;;20.40;53.50;;;;;;5048651;28;19913;-71
2022/11/09 08:52:52;;;;;;;;;;;20.40;53.60;;;;;;5033215;28;19951;-74
2022/11/09 08:55:17;;;;;;;;;;;20.40;53.70;;;;;;5049093;28;19913;-73
2022/11/09 08:57:42;;;;;;;;;;;20.40;53.70;;;;;;5029939;28;19917;-72
2022/11/09 09:00:08;;;;;;;;;;;20.50;53.90;;;;;;5051797;28;19915;-72
2022/11/09 09:02:34;;;;;;;;;;;20.50;53.80;;;;;;5049873;28;20440;-71
2022/11/09 09:04:59;;;;;;;;;;;20.50;53.70;;;;;;5033739;28;20284;-72
2022/11/09 09:07:24;;;;;;;;;;;20.50;53.70;;;;;;5044492;28;19920;-72
2022/11/09 09:09:50;;;;;;;;;;;20.50;53.70;;;;;;5051025;28;19909;-72
2022/11/09 09:12:16;;;;;;;;;;;20.60;53.60;;;;;;5046918;28;20360;-71
2022/11/09 09:14:41;;;;;;;;;;;20.60;53.40;;;;;;5042963;28;20367;-72
2022/11/09 09:17:06;;;;;;;;;;;20.60;53.30;;;;;;5046695;28;19913;-72
2022/11/09 09:19:32;;;;;;;;;;;20.60;53.40;;;;;;5049964;28;19913;-72
2022/11/09 09:21:58;;;;;;;;;;;20.60;53.50;;;;;;5049039;28;19925;-72
2022/11/09 09:24:23;;;;;;;;;;;20.50;53.50;;;;;;5048264;28;19917;-72
2022/11/09 09:26:49;;;;;;;;;;;20.50;53.50;;;;;;5043497;28;19974;-72
2022/11/09 09:29:15;;;;;;;;;;;20.60;53.50;;;;;;5027910;28;20407;-72
2022/11/09 09:31:40;;;;;;;;;;;20.60;53.50;;;;;;5046235;28;19917;-72
2022/11/09 09:34:06;;;;;;;;;;;20.60;53.50;;;;;;5048259;28;20364;-71
2022/11/09 09:36:31;;;;;;;;;;;20.60;53.50;;;;;;5027364;28;19929;-72
2022/11/09 09:38:57;;;;;;;;;;;20.60;53.50;;;;;;5051086;28;19917;-72
2022/11/09 09:41:30;;;;;;;;;;;20.60;53.40;;;;;;5049581;28;21275;-71
2022/11/09 09:43:56;;;;;;;;;;;20.60;53.40;;;;;;5032337;28;20327;-71
2022/11/09 09:46:24;;;;;;;;;;;20.60;53.30;;;;;;5030033;28;20285;-71
2022/11/09 09:48:50;;;;;;;;;;;20.70;53.40;;;;;;5033905;28;19952;-72
2022/11/09 09:51:24;;;;;;;;;;;20.70;53.40;;;;;;5029684;28;19913;-72
2022/11/09 09:53:56;;;;;;;;;;;20.70;53.40;;;;;;5030005;28;19956;-73
2022/11/09 09:56:32;;;;;;;;;;;20.60;53.50;;;;;;5049663;28;19919;-72
2022/11/09 09:59:17;;;;;;;;;;;20.70;53.50;;;;;;5028475;28;19921;-72
2022/11/09 10:01:43;;;;;;;;;;;20.70;53.40;;;;;;5043395;28;19993;-71
2022/11/09 10:04:22;;;;;;;;;;;20.70;53.40;;;;;;5031244;28;20295;-71
2022/11/09 10:06:57;;;;;;;;;;;20.60;53.50;;;;;;5032444;28;19936;-72
2022/11/09 10:09:39;;;;;;;;;;;20.70;53.60;;;;;;5037481;28;19916;-72
2022/11/09 10:12:05;;;;;;;;;;;20.70;53.50;;;;;;5032573;28;20409;-72
2022/11/09 10:14:36;;;;;;;;;;;20.70;53.50;;;;;;5049854;28;20453;-72
2022/11/09 10:17:13;;;;;;;;;;;20.70;54.20;;;;;;5032273;28;19920;-72
2022/11/09 10:19:48;;;;;;;;;;;20.70;53.60;;;;;;5016391;28;19986;-72
2022/11/09 10:22:25;;;;;;;;;;;20.80;53.50;;;;;;5034708;28;19912;-72
2022/11/09 10:24:56;;;;;;;;;;;20.80;53.70;;;;;;5037242;28;19916;-73
2022/11/09 10:27:26;;;;;;;;;;;21.00;53.80;;;;;;5035178;28;19984;-73
2022/11/09 10:29:51;;;;;;;;;;;21.30;53.30;;;;;;5029828;28;19951;-72
2022/11/09 10:32:21;;;;;;;;;;;21.70;52.60;;;;;;5032739;28;20026;-72
2022/11/09 10:34:53;;;;;;;;;;;22.00;51.80;;;;;;5034032;28;19916;-72
2022/11/09 10:37:24;;;;;;;;;;;22.30;51.50;;;;;;5050122;28;19924;-71
2022/11/09 10:40:10;;;;;;;;;;;22.50;51.10;;;;;;5033561;28;19924;-72
2022/11/09 10:42:35;;;;;;;;;;;22.70;50.60;;;;;;5046303;28;19913;-72
2022/11/09 10:45:09;;;;;;;;;;;22.80;50.50;;;;;;5050961;28;19913;-71
2022/11/09 10:47:48;;;;;;;;;;;22.90;50.30;;;;;;5032957;28;19927;-72
2022/11/09 10:50:20;;;;;;;;;;;23.00;50.70;;;;;;5035564;28;20451;-71
2022/11/09 10:52:45;;;;;;;;;;;22.90;50.10;;;;;;5028970;28;19913;-72
2022/11/09 10:55:14;;;;;;;;;;;22.80;50.30;;;;;;5051091;28;19916;-71
2022/11/09 10:57:49;;;;;;;;;;;22.70;50.40;;;;;;5035859;28;19916;-71
2022/11/09 11:00:15;;;;;;;;;;;22.70;50.50;;;;;;5047573;28;19917;-71
2022/11/09 11:02:41;;;;;;;;;;;22.70;50.50;;;;;;5018033;28;19919;-71
2022/11/09 11:05:19;;;;;;;;;;;22.80;50.40;;;;;;5034783;28;19955;-71
2022/11/09 11:07:44;;;;;;;;;;;22.80;50.40;;;;;;5033835;28;19920;-72
2022/11/09 11:10:16;;;;;;;;;;;22.80;50.50;;;;;;5029880;28;19920;-72
2022/11/09 11:12:41;;;;;;;;;;;22.80;50.60;;;;;;5049469;28;19913;-72
2022/11/09 11:15:17;;;;;;;;;;;22.90;50.60;;;;;;5043758;28;20394;-72
2022/11/09 11:17:43;;;;;;;;;;;23.00;50.40;;;;;;5035874;28;19973;-71
2022/11/09 11:20:23;;;;;;;;;;;23.10;50.30;;;;;;5049086;28;19964;-72
2022/11/09 11:22:49;;;;;;;;;;;23.20;50.00;;;;;;5033516;28;19916;-71
2022/11/09 11:25:18;;;;;;;;;;;23.30;49.80;;;;;;5046375;28;20360;-72
2022/11/09 11:27:46;;;;;;;;;;;23.40;49.60;;;;;;5049677;28;19928;-70
2022/11/09 11:30:13;;;;;;;;;;;23.40;49.70;;;;;;5030365;28;20051;-71
2022/11/09 11:32:39;;;;;;;;;;;23.30;49.70;;;;;;5030024;28;20473;-71
2022/11/09 11:35:04;;;;;;;;;;;23.20;49.90;;;;;;5043304;28;20019;-72
2022/11/09 11:37:30;;;;;;;;;;;23.10;50.10;;;;;;5032507;28;20387;-72
2022/11/09 11:39:55;;;;;;;;;;;23.00;50.20;;;;;;5048784;28;19974;-71
2022/11/09 11:42:41;;;;;;;;;;;23.10;50.50;;;;;;5051627;28;19958;-72
2022/11/09 11:45:42;;;;;;;;;;;23.10;50.30;;;;;;5038668;28;19956;-72
2022/11/09 11:48:17;;;;;;;;;;;23.30;50.20;;;;;;4986575;28;19926;-71
2022/11/09 11:50:45;;;;;;;;;;;23.40;50.00;;;;;;5029811;28;19913;-71
2022/11/09 11:53:29;;;;;;;;;;;23.50;49.80;;;;;;5052776;28;19963;-71
2022/11/09 11:56:03;;;;;;;;;;;23.50;49.70;;;;;;5047269;28;19956;-73
2022/11/09 11:58:36;;;;;;;;;;;23.60;49.60;;;;;;5031140;28;20004;-73
2022/11/09 12:01:19;;;;;;;;;;;23.70;49.60;;;;;;5035582;28;19948;-72
2022/11/09 12:03:44;;;;;;;;;;;23.70;49.50;;;;;;5026160;28;19971;-72
2022/11/09 12:06:28;;;;;;;;;;;23.60;49.40;;;;;;5046581;28;19966;-72
2022/11/09 12:08:58;;;;;;;;;;;23.50;49.60;;;;;;5042727;28;20007;-72
2022/11/09 12:11:42;;;;;;;;;;;23.40;49.80;;;;;;5030465;28;20007;-72
2022/11/09 12:14:23;;;;;;;;;;;23.30;50.10;;;;;;5049642;28;20035;-72
2022/11/09 12:16:52;;;;;;;;;;;23.30;50.30;;;;;;5030291;28;19923;-72
2022/11/09 12:19:33;;;;;;;;;;;23.30;50.30;;;;;;5027516;28;19924;-72
2022/11/09 12:22:11;;;;;;;;;;;23.30;50.20;;;;;;5045241;28;19920;-73
2022/11/09 12:24:53;;;;;;;;;;;23.40;50.10;;;;;;5044737;28;19994;-72
2022/11/09 12:27:27;;;;;;;;;;;23.50;50.00;;;;;;5048197;28;19964;-72
2022/11/09 12:30:08;;;;;;;;;;;23.50;49.90;;;;;;5032182;28;19965;-72
2022/11/09 12:32:36;;;;;;;;;;;23.50;49.80;;;;;;5052305;28;20266;-71
2022/11/09 12:35:07;;;;;;;;;;;23.50;49.80;;;;;;5043607;28;19921;-70
2022/11/09 12:37:34;;;;;;;;;;;23.60;49.80;;;;;;5049727;28;19952;-72
2022/11/09 12:40:05;;;;;;;;;;;23.50;49.70;;;;;;5021982;28;20361;-72
2022/11/09 12:42:34;;;;;;;;;;;23.50;49.80;;;;;;5046082;28;19913;-72
2022/11/09 12:45:02;;;;;;;;;;;23.60;49.90;;;;;;5016682;28;19916;-72
2022/11/09 12:47:33;;;;;;;;;;;23.60;49.80;;;;;;5033635;28;20349;-72
2022/11/09 12:49:59;;;;;;;;;;;23.60;49.70;;;;;;5032222;28;19983;-71
2022/11/09 12:52:26;;;;;;;;;;;23.60;49.80;;;;;;5049035;28;19928;-73
2022/11/09 12:54:51;;;;;;;;;;;23.50;50.00;;;;;;5029087;28;19912;-72
2022/11/09 12:57:24;;;;;;;;;;;23.40;50.10;;;;;;5033280;28;19923;-72
2022/11/09 12:59:56;;;;;;;;;;;23.40;50.30;;;;;;5047036;28;19917;-71
2022/11/09 13:02:30;;;;;;;;;;;23.40;50.10;;;;;;5049397;28;20300;-72
2022/11/09 13:04:59;;;;;;;;;;;23.50;50.30;;;;;;5049487;28;19923;-72
2022/11/09 13:07:27;;;;;;;;;;;23.40;50.30;;;;;;5049060;28;19921;-71
2022/11/09 13:09:53;;;;;;;;;;;23.30;50.40;;;;;;5032481;28;20011;-72
2022/11/09 13:12:25;;;;;;;;;;;23.30;50.50;;;;;;5028987;28;19921;-71
2022/11/09 13:14:51;;;;;;;;;;;23.30;50.50;;;;;;5032557;28;19913;-72
2022/11/09 13:17:19;;;;;;;;;;;23.40;50.40;;;;;;5033535;28;20074;-72
2022/11/09 13:19:44;;;;;;;;;;;23.40;50.40;;;;;;5048619;28;19916;-72
2022/11/09 13:22:13;;;;;;;;;;;23.30;50.50;;;;;;5047745;28;20062;-71
2022/11/09 13:24:49;;;;;;;;;;;23.20;50.60;;;;;;5050875;28;19939;-72
2022/11/09 13:27:33;;;;;;;;;;;23.20;50.70;;;;;;5032662;28;20018;-72
2022/11/09 13:29:59;;;;;;;;;;;23.20;50.80;;;;;;5048447;28;20258;-72
2022/11/09 13:32:25;;;;;;;;;;;23.20;50.80;;;;;;5028513;28;20395;-72
2022/11/09 13:34:53;;;;;;;;;;;23.20;51.40;;;;;;5050762;28;19924;-71
2022/11/09 13:37:37;;;;;;;;;;;23.10;50.80;;;;;;5031897;28;20269;-72
2022/11/09 13:40:22;;;;;;;;;;;23.10;50.90;;;;;;5043726;28;20007;-72
2022/11/09 13:42:55;;;;;;;;;;;23.10;51.00;;;;;;5050384;28;19920;-73
2022/11/09 13:45:36;;;;;;;;;;;23.10;50.90;;;;;;5032786;28;19909;-72
2022/11/09 13:48:02;;;;;;;;;;;23.20;50.90;;;;;;5033342;28;19952;-71
2022/11/09 13:50:28;;;;;;;;;;;23.20;50.90;;;;;;5045724;28;19916;-72
2022/11/09 13:52:54;;;;;;;;;;;23.10;51.00;;;;;;5045088;28;20299;-72
2022/11/09 13:55:23;;;;;;;;;;;23.10;51.10;;;;;;5033291;28;20272;-71
2022/11/09 13:57:48;;;;;;;;;;;23.10;51.20;;;;;;5049751;28;19917;-71
2022/11/09 14:00:17;;;;;;;;;;;23.10;51.20;;;;;;5037185;28;20365;-72
2022/11/09 14:02:50;;;;;;;;;;;23.00;51.20;;;;;;5035633;28;19982;-72
2022/11/09 14:05:23;;;;;;;;;;;23.00;51.40;;;;;;5050775;28;19939;-72
2022/11/09 14:07:48;;;;;;;;;;;23.00;51.40;;;;;;5052313;28;19920;-72
2022/11/09 14:10:17;;;;;;;;;;;23.10;51.30;;;;;;5054216;28;19920;-71
2022/11/09 14:12:49;;;;;;;;;;;23.20;51.80;;;;;;5032922;28;20285;-71
2022/11/09 14:15:23;;;;;;;;;;;23.20;50.90;;;;;;5053842;28;20422;-72
2022/11/09 14:18:09;;;;;;;;;;;23.20;51.20;;;;;;5032124;28;19913;-72
2022/11/09 14:20:39;;;;;;;;;;;23.20;51.00;;;;;;5042560;28;19923;-72
2022/11/09 14:23:13;;;;;;;;;;;23.20;51.10;;;;;;5035004;28;19913;-72